createdAt,value
2024-01-26T00:01:42.783Z,8.28
2024-01-26T00:04:46.988Z,8.13
2024-01-26T00:07:49.945Z,7.90
2024-01-26T00:10:52.958Z,8.07
2024-01-26T00:13:55.701Z,8.09
2024-01-26T00:16:58.443Z,8.17
2024-01-26T00:20:02.598Z,8.10
2024-01-26T00:23:05.507Z,8.18
2024-01-26T00:26:08.295Z,8.19
2024-01-26T00:29:11.031Z,8.17
2024-01-26T00:32:13.830Z,8.22
2024-01-26T00:35:18.177Z,8.14
2024-01-26T00:38:21.448Z,7.99
2024-01-26T00:41:24.344Z,8.04
2024-01-26T00:44:27.440Z,7.14
2024-01-26T00:47:30.240Z,8.15
2024-01-26T00:50:34.454Z,8.19
2024-01-26T00:53:37.248Z,8.17
2024-01-26T00:56:40.088Z,8.24
2024-01-26T00:59:42.831Z,8.25
2024-01-26T01:02:45.725Z,8.23
2024-01-26T01:05:49.999Z,8.17
2024-01-26T01:08:52.852Z,8.20
2024-01-26T01:11:55.741Z,8.21
2024-01-26T01:15:00.094Z,8.00
2024-01-26T01:18:03.147Z,7.98
2024-01-26T01:21:07.667Z,8.15
2024-01-26T01:24:10.459Z,8.17
2024-01-26T01:27:13.286Z,8.09
2024-01-26T01:30:16.140Z,7.97
2024-01-26T01:33:19.168Z,8.04
2024-01-26T01:36:23.443Z,8.03
2024-01-26T01:39:26.279Z,8.04
2024-01-26T01:42:29.064Z,7.99
2024-01-26T01:45:31.967Z,8.10
2024-01-26T01:48:35.101Z,8.07
2024-01-26T01:51:40.553Z,8.24
2024-01-26T01:54:43.696Z,8.17
2024-01-26T01:57:48.914Z,8.07
2024-01-26T02:00:52.117Z,8.28
2024-01-26T02:03:55.613Z,8.35
2024-01-26T02:07:01.399Z,7.28
2024-01-26T02:10:05.394Z,8.39
2024-01-26T02:13:08.423Z,8.31
2024-01-26T02:16:11.207Z,8.29
2024-01-26T02:19:16.366Z,8.24
2024-01-26T02:22:20.684Z,8.22
2024-01-26T02:25:24.809Z,8.28
2024-01-26T02:28:27.820Z,8.19
2024-01-26T02:31:31.036Z,8.32
2024-01-26T02:34:33.888Z,8.07
2024-01-26T02:37:36.699Z,8.25
2024-01-26T02:40:40.806Z,8.22
2024-01-26T02:43:43.549Z,8.26
2024-01-26T02:46:48.068Z,8.10
2024-01-26T02:49:50.891Z,7.89
2024-01-26T02:52:53.702Z,8.21
2024-01-26T02:55:57.793Z,8.23
2024-01-26T02:59:01.635Z,8.00
2024-01-26T03:02:04.518Z,8.14
2024-01-26T03:05:08.492Z,8.12
2024-01-26T03:08:11.293Z,8.16
2024-01-26T03:11:15.453Z,8.19
2024-01-26T03:14:19.835Z,8.18
2024-01-26T03:17:22.623Z,8.18
2024-01-26T03:20:25.562Z,8.30
2024-01-26T03:23:28.363Z,8.32
2024-01-26T03:26:32.588Z,8.32
2024-01-26T03:29:35.367Z,8.31
2024-01-26T03:32:38.308Z,8.27
2024-01-26T03:35:41.196Z,8.08
2024-01-26T03:38:43.933Z,7.98
2024-01-26T03:41:48.118Z,8.08
2024-01-26T03:44:50.989Z,7.88
2024-01-26T03:47:53.800Z,7.85
2024-01-26T03:50:56.651Z,8.22
2024-01-26T03:54:00.699Z,8.18
2024-01-26T03:57:06.626Z,8.10
2024-01-26T04:00:11.537Z,8.10
2024-01-26T04:03:14.538Z,8.12
2024-01-26T04:06:18.382Z,7.97
2024-01-26T04:09:21.194Z,8.04
2024-01-26T04:12:25.363Z,8.18
2024-01-26T04:15:28.105Z,8.18
2024-01-26T04:18:30.928Z,8.18
2024-01-26T04:21:34.075Z,7.42
2024-01-26T04:24:37.293Z,8.12
2024-01-26T04:27:41.794Z,8.21
2024-01-26T04:30:44.715Z,7.95
2024-01-26T04:33:47.576Z,8.31
2024-01-26T04:36:50.908Z,8.31
2024-01-26T04:39:53.735Z,8.40
2024-01-26T04:42:57.855Z,8.47
2024-01-26T04:46:00.665Z,8.56
2024-01-26T04:49:03.618Z,8.58
2024-01-26T04:52:06.769Z,8.76
2024-01-26T04:55:10.514Z,8.86
2024-01-26T04:58:14.674Z,8.96
2024-01-26T05:01:17.483Z,9.04
2024-01-26T05:04:20.637Z,8.93
2024-01-26T05:07:23.838Z,9.06
2024-01-26T05:10:26.670Z,9.29
2024-01-26T05:13:30.894Z,9.42
2024-01-26T05:16:33.662Z,9.42
2024-01-26T05:19:36.466Z,9.50
2024-01-26T05:22:39.319Z,9.55
2024-01-26T05:25:43.144Z,9.60
2024-01-26T05:28:47.734Z,9.62
2024-01-26T05:31:50.746Z,9.46
2024-01-26T05:34:53.653Z,9.58
2024-01-26T05:37:56.436Z,9.67
2024-01-26T05:40:59.244Z,9.73
2024-01-26T05:44:03.414Z,9.74
2024-01-26T05:47:06.440Z,9.81
2024-01-26T05:50:10.059Z,9.84
2024-01-26T05:53:13.017Z,9.86
2024-01-26T05:56:16.706Z,9.90
2024-01-26T05:59:21.025Z,9.92
2024-01-26T06:02:23.869Z,9.94
2024-01-26T06:05:26.686Z,9.69
2024-01-26T06:08:29.489Z,9.98
2024-01-26T06:11:34.363Z,10.01
2024-01-26T06:14:38.894Z,10.04
2024-01-26T06:17:42.049Z,10.07
2024-01-26T06:20:45.237Z,10.08
2024-01-26T06:23:48.177Z,10.13
2024-01-26T06:26:51.044Z,10.16
2024-01-26T06:29:55.334Z,10.16
2024-01-26T06:32:58.207Z,10.17
2024-01-26T06:36:01.111Z,10.20
2024-01-26T06:39:04.603Z,10.21
2024-01-26T06:42:08.176Z,10.26
2024-01-26T06:45:14.619Z,10.28
2024-01-26T06:48:17.540Z,10.28
2024-01-26T06:51:20.847Z,10.36
2024-01-26T06:54:23.718Z,10.36
2024-01-26T06:57:26.526Z,10.35
2024-01-26T07:00:31.165Z,10.36
2024-01-26T07:03:34.189Z,10.40
2024-01-26T07:06:37.106Z,10.41
2024-01-26T07:09:40.062Z,10.26
2024-01-26T07:12:43.421Z,10.44
2024-01-26T07:15:47.867Z,10.47
2024-01-26T07:18:50.910Z,10.48
2024-01-26T07:21:53.900Z,10.48
2024-01-26T07:24:56.680Z,10.41
2024-01-26T07:27:59.488Z,10.53
2024-01-26T07:31:03.639Z,10.41
2024-01-26T07:34:06.820Z,10.57
2024-01-26T07:37:09.836Z,10.54
2024-01-26T07:40:13.030Z,10.60
2024-01-26T07:43:16.396Z,10.61
2024-01-26T07:46:20.559Z,10.64
2024-01-26T07:49:23.600Z,10.72
2024-01-26T07:52:26.527Z,10.73
2024-01-26T07:55:29.298Z,10.78
2024-01-26T07:58:32.316Z,10.78
2024-01-26T08:01:37.010Z,10.83
2024-01-26T08:04:39.988Z,10.88
2024-01-26T08:07:42.855Z,10.88
2024-01-26T08:10:46.062Z,10.88
2024-01-26T08:13:48.832Z,10.94
2024-01-26T08:16:53.231Z,11.02
2024-01-26T08:19:56.239Z,11.07
2024-01-26T08:22:59.085Z,11.11
2024-01-26T08:26:03.056Z,11.18
2024-01-26T08:29:06.090Z,11.19
2024-01-26T08:32:10.290Z,11.26
2024-01-26T08:35:13.700Z,11.33
2024-01-26T08:38:16.701Z,11.40
2024-01-26T08:41:20.019Z,11.48
2024-01-26T08:44:22.730Z,11.54
2024-01-26T08:47:26.865Z,11.59
2024-01-26T08:50:29.623Z,11.66
2024-01-26T08:53:32.422Z,11.68
2024-01-26T08:56:35.503Z,11.61
2024-01-26T08:59:38.468Z,11.75
2024-01-26T09:02:43.033Z,11.68
2024-01-26T09:05:45.983Z,11.75
2024-01-26T09:08:48.822Z,11.72
2024-01-26T09:11:53.160Z,11.79
2024-01-26T09:14:56.111Z,11.68
2024-01-26T09:18:02.254Z,11.73
2024-01-26T09:21:05.629Z,11.58
2024-01-26T09:24:09.129Z,11.67
2024-01-26T09:27:12.026Z,11.72
2024-01-26T09:30:15.388Z,11.74
2024-01-26T09:33:19.631Z,11.73
2024-01-26T09:36:22.464Z,11.73
2024-01-26T09:39:25.375Z,11.73
2024-01-26T09:42:28.286Z,11.70
2024-01-26T09:45:31.192Z,11.69
2024-01-26T09:48:35.947Z,11.70
2024-01-26T09:51:40.113Z,11.68
2024-01-26T09:54:43.496Z,11.55
2024-01-26T09:57:46.663Z,11.65
2024-01-26T10:00:50.062Z,11.61
2024-01-26T10:03:57.383Z,11.71
2024-01-26T10:07:00.830Z,11.40
2024-01-26T10:10:04.560Z,11.69
2024-01-26T10:13:08.314Z,11.70
2024-01-26T10:16:14.352Z,11.35
2024-01-26T10:19:24.647Z,11.67
2024-01-26T10:22:27.840Z,11.62
2024-01-26T10:25:31.285Z,11.66
2024-01-26T10:28:34.156Z,11.65
2024-01-26T10:31:37.272Z,11.74
2024-01-26T10:34:42.986Z,11.63
2024-01-26T10:37:48.011Z,11.63
2024-01-26T10:40:59.971Z,11.45
2024-01-26T10:44:04.356Z,11.62
2024-01-26T10:47:10.193Z,11.54
2024-01-26T10:50:14.614Z,11.65
2024-01-26T10:53:18.419Z,11.69
2024-01-26T10:56:21.622Z,11.72
2024-01-26T10:59:25.821Z,11.72
2024-01-26T11:02:33.485Z,11.70
2024-01-26T11:05:38.042Z,11.66
2024-01-26T11:08:42.229Z,11.72
2024-01-26T11:11:45.031Z,11.70
2024-01-26T11:14:49.364Z,11.68
2024-01-26T11:17:53.723Z,11.39
2024-01-26T11:21:03.451Z,11.71
2024-01-26T11:24:15.966Z,11.68
2024-01-26T11:27:18.996Z,11.48
2024-01-26T11:30:23.829Z,11.75
2024-01-26T11:33:27.301Z,11.79
2024-01-26T11:36:34.909Z,11.83
2024-01-26T11:39:38.780Z,11.88
2024-01-26T11:42:42.594Z,11.90
2024-01-26T11:45:46.595Z,11.98
2024-01-26T11:48:49.538Z,12.04
2024-01-26T11:51:54.719Z,12.04
2024-01-26T11:55:00.049Z,12.04
2024-01-26T11:58:03.510Z,12.05
2024-01-26T12:01:07.768Z,12.08
2024-01-26T12:04:11.113Z,12.01
2024-01-26T12:07:15.715Z,12.07
2024-01-26T12:10:18.536Z,12.09
2024-01-26T12:13:22.004Z,12.09
2024-01-26T12:16:24.834Z,12.12
2024-01-26T12:19:28.515Z,12.15
2024-01-26T12:22:35.782Z,12.21
2024-01-26T12:25:38.848Z,12.05
2024-01-26T12:28:42.635Z,12.25
2024-01-26T12:31:45.399Z,12.33
2024-01-26T12:34:48.957Z,12.19
2024-01-26T12:37:53.313Z,12.36
2024-01-26T12:40:56.525Z,12.34
2024-01-26T12:43:59.336Z,12.36
2024-01-26T12:47:04.561Z,12.37
2024-01-26T12:50:08.588Z,12.30
2024-01-26T12:53:12.894Z,12.41
2024-01-26T12:56:15.779Z,12.45
2024-01-26T12:59:19.150Z,12.37
2024-01-26T13:02:22.331Z,12.43
2024-01-26T13:05:25.852Z,12.48
2024-01-26T13:08:30.272Z,12.49
2024-01-26T13:11:33.165Z,12.55
2024-01-26T13:14:36.112Z,12.57
2024-01-26T13:17:39.283Z,12.57
2024-01-26T13:20:42.538Z,12.59
2024-01-26T13:23:46.798Z,12.75
2024-01-26T13:26:50.322Z,12.43
2024-01-26T13:29:53.223Z,12.75
2024-01-26T13:32:56.491Z,12.86
2024-01-26T13:35:59.532Z,12.93
2024-01-26T13:39:07.498Z,12.96
2024-01-26T13:42:10.622Z,12.42
2024-01-26T13:45:14.613Z,12.30
2024-01-26T13:48:17.954Z,13.01
2024-01-26T13:51:20.966Z,12.64
2024-01-26T13:54:25.192Z,13.06
2024-01-26T13:57:29.788Z,12.97
2024-01-26T14:00:32.890Z,12.90
2024-01-26T14:03:36.027Z,12.89
2024-01-26T14:06:39.169Z,12.88
2024-01-26T14:09:43.668Z,12.59
2024-01-26T14:12:46.702Z,12.90
2024-01-26T14:15:49.942Z,12.87
2024-01-26T14:18:53.037Z,12.86
2024-01-26T14:21:56.798Z,12.81
2024-01-26T14:25:01.282Z,12.89
2024-01-26T14:28:04.747Z,12.66
2024-01-26T14:31:07.604Z,12.57
2024-01-26T14:34:11.325Z,12.73
2024-01-26T14:37:14.230Z,12.49
2024-01-26T14:40:19.228Z,12.52
2024-01-26T14:43:22.178Z,12.45
2024-01-26T14:46:26.344Z,12.36
2024-01-26T14:49:30.356Z,12.38
2024-01-26T14:52:34.215Z,12.36
2024-01-26T14:55:38.475Z,12.33
2024-01-26T14:58:41.272Z,12.26
2024-01-26T15:01:44.247Z,12.07
2024-01-26T15:04:47.128Z,11.89
2024-01-26T15:07:51.224Z,11.78
2024-01-26T15:10:59.199Z,11.61
2024-01-26T15:14:02.277Z,11.54
2024-01-26T15:17:05.475Z,11.44
2024-01-26T15:20:10.345Z,11.41
2024-01-26T15:23:13.492Z,11.31
2024-01-26T15:26:17.710Z,11.33
2024-01-26T15:29:21.063Z,11.36
2024-01-26T15:32:24.007Z,11.35
2024-01-26T15:35:27.128Z,11.35
2024-01-26T15:38:30.026Z,11.28
2024-01-26T15:41:35.846Z,11.18
2024-01-26T15:44:41.567Z,11.12
2024-01-26T15:47:45.066Z,10.93
2024-01-26T15:50:48.161Z,10.81
2024-01-26T15:53:51.004Z,10.91
2024-01-26T15:56:55.221Z,10.60
2024-01-26T15:59:58.131Z,10.40
2024-01-26T16:03:01.094Z,10.35
2024-01-26T16:06:04.159Z,10.06
2024-01-26T16:09:07.156Z,10.06
2024-01-26T16:12:13.435Z,9.92
2024-01-26T16:15:16.638Z,9.81
2024-01-26T16:18:19.730Z,9.68
2024-01-26T16:21:22.986Z,9.61
2024-01-26T16:24:25.971Z,9.49
2024-01-26T16:27:30.179Z,9.42
2024-01-26T16:30:33.664Z,9.33
2024-01-26T16:33:36.664Z,9.28
2024-01-26T16:36:39.949Z,9.24
2024-01-26T16:39:42.805Z,9.16
2024-01-26T16:42:47.005Z,9.11
2024-01-26T16:45:49.988Z,9.09
2024-01-26T16:48:53.108Z,8.96
2024-01-26T16:52:00.524Z,9.15
2024-01-26T16:55:03.356Z,9.11
2024-01-26T16:58:07.599Z,8.85
2024-01-26T17:01:14.750Z,9.03
2024-01-26T17:04:19.813Z,9.09
2024-01-26T17:07:22.801Z,9.10
2024-01-26T17:10:25.801Z,8.97
2024-01-26T17:13:30.459Z,8.96
2024-01-26T17:16:34.142Z,8.93
2024-01-26T17:19:38.306Z,8.20
2024-01-26T17:22:41.471Z,7.96
2024-01-26T17:25:44.319Z,8.90
2024-01-26T17:28:48.822Z,8.84
2024-01-26T17:31:51.695Z,8.60
2024-01-26T17:34:54.622Z,8.71
2024-01-26T17:37:57.552Z,8.62
2024-01-26T17:41:00.461Z,8.53
2024-01-26T17:44:05.135Z,8.56
2024-01-26T17:47:07.944Z,8.47
2024-01-26T17:50:11.420Z,8.52
2024-01-26T17:53:14.515Z,7.59
2024-01-26T17:56:17.260Z,8.47
2024-01-26T17:59:21.811Z,8.12
2024-01-26T18:02:27.145Z,8.37
2024-01-26T18:05:30.859Z,8.21
2024-01-26T18:08:33.804Z,8.18
2024-01-26T18:11:37.242Z,8.24
2024-01-26T18:14:41.560Z,8.21
2024-01-26T18:17:44.678Z,8.17
2024-01-26T18:20:47.899Z,7.55
2024-01-26T18:23:50.788Z,7.96
2024-01-26T18:26:53.592Z,7.90
2024-01-26T18:29:57.811Z,7.83
2024-01-26T18:33:01.372Z,7.73
2024-01-26T18:36:07.602Z,7.46
2024-01-26T18:39:13.699Z,7.55
2024-01-26T18:42:16.645Z,7.81
2024-01-26T18:45:21.473Z,7.71
2024-01-26T18:48:24.582Z,7.90
2024-01-26T18:51:27.619Z,7.86
2024-01-26T18:54:30.638Z,7.36
2024-01-26T18:57:33.503Z,7.97
2024-01-26T19:00:38.605Z,7.98
2024-01-26T19:03:41.928Z,7.87
2024-01-26T19:06:45.348Z,8.00
2024-01-26T19:09:48.221Z,7.88
2024-01-26T19:12:53.901Z,7.63
2024-01-26T19:16:01.750Z,7.95
2024-01-26T19:19:05.267Z,7.70
2024-01-26T19:22:08.183Z,7.72
2024-01-26T19:25:11.477Z,7.82
2024-01-26T19:28:14.399Z,7.74
2024-01-26T19:31:18.678Z,7.67
2024-01-26T19:34:22.169Z,7.47
2024-01-26T19:37:25.049Z,7.32
2024-01-26T19:40:28.001Z,7.45
2024-01-26T19:43:31.278Z,7.55
2024-01-26T19:46:35.439Z,7.56
2024-01-26T19:49:38.800Z,7.60
2024-01-26T19:52:45.040Z,7.62
2024-01-26T19:55:50.290Z,7.38
2024-01-26T19:58:54.590Z,7.71
2024-01-26T20:01:58.811Z,7.74
2024-01-26T20:05:01.965Z,7.53
2024-01-26T20:08:05.119Z,7.78
2024-01-26T20:11:08.489Z,7.76
2024-01-26T20:14:11.428Z,7.81
2024-01-26T20:17:17.276Z,7.76
2024-01-26T20:20:20.844Z,7.33
2024-01-26T20:23:26.422Z,7.70
2024-01-26T20:26:30.021Z,7.73
2024-01-26T20:29:33.023Z,7.61
2024-01-26T20:32:38.773Z,7.78
2024-01-26T20:35:42.236Z,7.74
2024-01-26T20:38:45.889Z,7.30
2024-01-26T20:41:52.638Z,6.92
2024-01-26T20:44:55.806Z,7.76
2024-01-26T20:48:01.510Z,7.79
2024-01-26T20:51:04.713Z,7.79
2024-01-26T20:54:08.095Z,7.90
2024-01-26T20:57:11.110Z,7.89
2024-01-26T21:00:16.182Z,7.78
2024-01-26T21:03:20.568Z,7.78
2024-01-26T21:06:23.522Z,7.84
2024-01-26T21:09:26.602Z,7.74
2024-01-26T21:12:29.557Z,7.58
2024-01-26T21:15:32.905Z,7.71
2024-01-26T21:18:37.637Z,7.78
2024-01-26T21:21:40.685Z,7.82
2024-01-26T21:24:43.910Z,7.74
2024-01-26T21:27:46.823Z,7.85
2024-01-26T21:30:51.361Z,7.80
2024-01-26T21:33:55.640Z,7.65
2024-01-26T21:36:58.654Z,7.88
2024-01-26T21:40:02.483Z,7.63
2024-01-26T21:43:06.545Z,7.87
2024-01-26T21:46:09.700Z,7.85
2024-01-26T21:49:15.394Z,7.58
2024-01-26T21:52:20.380Z,7.76
2024-01-26T21:55:23.990Z,7.77
2024-01-26T21:58:26.792Z,7.08
2024-01-26T22:01:29.964Z,7.67
2024-01-26T22:04:34.307Z,7.60
2024-01-26T22:07:37.314Z,7.22
2024-01-26T22:10:40.888Z,7.57
2024-01-26T22:13:43.848Z,7.16
2024-01-26T22:16:46.618Z,7.53
2024-01-26T22:19:51.157Z,7.52
2024-01-26T22:22:54.141Z,7.36
2024-01-26T22:25:58.254Z,7.35
2024-01-26T22:29:01.573Z,7.12
2024-01-26T22:32:04.727Z,7.16
2024-01-26T22:35:09.515Z,7.10
2024-01-26T22:38:12.264Z,6.53
2024-01-26T22:41:15.341Z,6.83
2024-01-26T22:44:18.138Z,6.88
2024-01-26T22:47:20.918Z,6.82
2024-01-26T22:50:25.759Z,6.69
2024-01-26T22:53:28.544Z,6.61
2024-01-26T22:56:31.311Z,6.55
2024-01-26T22:59:34.206Z,6.45
2024-01-26T23:02:39.083Z,6.42
2024-01-26T23:05:45.070Z,6.37
2024-01-26T23:08:48.190Z,6.25
2024-01-26T23:11:51.175Z,6.31
2024-01-26T23:14:54.000Z,6.34
2024-01-26T23:17:57.158Z,6.33
2024-01-26T23:21:01.759Z,6.26
2024-01-26T23:24:04.717Z,5.96
2024-01-26T23:27:07.909Z,6.15
2024-01-26T23:30:11.318Z,5.64
2024-01-26T23:33:14.283Z,5.52
2024-01-26T23:36:18.530Z,5.98
2024-01-26T23:39:21.357Z,5.98
2024-01-26T23:42:24.144Z,6.20
2024-01-26T23:45:28.623Z,6.06
2024-01-26T23:48:31.773Z,6.31
2024-01-26T23:51:36.084Z,6.21
2024-01-26T23:54:40.659Z,6.28
2024-01-26T23:57:43.923Z,6.32
